Weather at Tengah Air Base

Public forecast

Using degrees Celsius for public forecast. Weather courtesy of forecast.io.

Closest aviation weather report (METAR) to Tengah Air Base

Closest report is Seletar Airport, 9.7 nm (17.9 km) E. Retrieved 2022/08/15 19:00 UTC (16 minutes ago):

WSSL 151900Z VRB01KT 9999 FEW018 BKN300 26/25 Q1009

Closest aviation forecast (TAF) to Tengah Air Base

Closest forecast is Seletar Airport, 9.7 nm (17.9 km) E. Retrieved 2022/08/15 18:00 UTC (1 hour ago):

TAF WSSL 151700Z 1518/1700 20007KT 9999 FEW015 BKN020 TEMPO 1520/1600 25015G25KT 3000 TSRA FEW012CB BKN015